sensor_id;sensor_type;location;lat;lon;timestamp;temperature;humidity
23289;DHT22;11813;50.834;4.280;2022-10-17T00:01:04;17.50;99.90
23289;DHT22;11813;50.834;4.280;2022-10-17T00:03:31;17.50;99.90
23289;DHT22;11813;50.834;4.280;2022-10-17T00:05:57;17.40;99.90
23289;DHT22;11813;50.834;4.280;2022-10-17T00:08:23;17.50;99.90
23289;DHT22;11813;50.834;4.280;2022-10-17T00:11:03;17.40;99.90
23289;DHT22;11813;50.834;4.280;2022-10-17T00:13:29;17.30;99.90
23289;DHT22;11813;50.834;4.280;2022-10-17T00:15:55;17.30;99.90
23289;DHT22;11813;50.834;4.280;2022-10-17T00:18:21;17.30;99.90
23289;DHT22;11813;50.834;4.280;2022-10-17T00:20:46;17.30;99.90
23289;DHT22;11813;50.834;4.280;2022-10-17T00:23:12;17.20;99.90
23289;DHT22;11813;50.834;4.280;2022-10-17T00:25:38;17.20;99.90
23289;DHT22;11813;50.834;4.280;2022-10-17T00:28:05;17.30;99.90
23289;DHT22;11813;50.834;4.280;2022-10-17T00:30:31;17.30;99.90
23289;DHT22;11813;50.834;4.280;2022-10-17T00:32:57;17.30;99.90
23289;DHT22;11813;50.834;4.280;2022-10-17T00:35:22;17.20;99.90
23289;DHT22;11813;50.834;4.280;2022-10-17T00:37:48;17.20;99.90
23289;DHT22;11813;50.834;4.280;2022-10-17T00:40:14;17.20;99.90
23289;DHT22;11813;50.834;4.280;2022-10-17T00:42:39;17.30;99.90
23289;DHT22;11813;50.834;4.280;2022-10-17T00:45:24;17.30;99.90
23289;DHT22;11813;50.834;4.280;2022-10-17T00:47:59;17.40;99.90
23289;DHT22;11813;50.834;4.280;2022-10-17T00:50:28;17.30;99.90
23289;DHT22;11813;50.834;4.280;2022-10-17T00:52:57;17.30;99.90
23289;DHT22;11813;50.834;4.280;2022-10-17T00:55:28;17.30;99.90
23289;DHT22;11813;50.834;4.280;2022-10-17T00:57:56;17.40;99.90
23289;DHT22;11813;50.834;4.280;2022-10-17T01:00:23;17.40;99.90
23289;DHT22;11813;50.834;4.280;2022-10-17T01:02:48;17.40;99.90
23289;DHT22;11813;50.834;4.280;2022-10-17T01:05:14;17.50;99.90
23289;DHT22;11813;50.834;4.280;2022-10-17T01:07:41;17.50;99.90
23289;DHT22;11813;50.834;4.280;2022-10-17T01:10:08;17.50;99.90
23289;DHT22;11813;50.834;4.280;2022-10-17T01:12:47;17.60;99.90
23289;DHT22;11813;50.834;4.280;2022-10-17T01:18:10;17.70;99.90
23289;DHT22;11813;50.834;4.280;2022-10-17T01:27:05;17.80;99.90
23289;DHT22;11813;50.834;4.280;2022-10-17T01:32:21;17.80;99.90
23289;DHT22;11813;50.834;4.280;2022-10-17T01:34:55;17.90;99.90
23289;DHT22;11813;50.834;4.280;2022-10-17T01:37:36;18.00;99.90
23289;DHT22;11813;50.834;4.280;2022-10-17T01:40:13;18.10;99.90
23289;DHT22;11813;50.834;4.280;2022-10-17T01:43:04;18.10;99.90
23289;DHT22;11813;50.834;4.280;2022-10-17T01:46:00;18.10;99.90
23289;DHT22;11813;50.834;4.280;2022-10-17T01:48:34;18.20;99.90
23289;DHT22;11813;50.834;4.280;2022-10-17T01:51:27;18.20;99.90
23289;DHT22;11813;50.834;4.280;2022-10-17T01:54:24;18.10;99.90
23289;DHT22;11813;50.834;4.280;2022-10-17T01:56:51;18.10;99.90
23289;DHT22;11813;50.834;4.280;2022-10-17T01:59:22;18.20;99.90
23289;DHT22;11813;50.834;4.280;2022-10-17T02:01:51;18.20;99.90
23289;DHT22;11813;50.834;4.280;2022-10-17T02:04:18;18.20;99.90
23289;DHT22;11813;50.834;4.280;2022-10-17T02:06:44;18.30;99.90
23289;DHT22;11813;50.834;4.280;2022-10-17T02:09:17;18.30;99.90
23289;DHT22;11813;50.834;4.280;2022-10-17T02:11:48;18.40;99.90
23289;DHT22;11813;50.834;4.280;2022-10-17T02:17:09;18.40;99.90
23289;DHT22;11813;50.834;4.280;2022-10-17T02:19:59;18.40;99.90
23289;DHT22;11813;50.834;4.280;2022-10-17T02:22:37;18.40;99.90
23289;DHT22;11813;50.834;4.280;2022-10-17T02:27:47;18.50;99.90
23289;DHT22;11813;50.834;4.280;2022-10-17T02:30:40;18.50;99.90
23289;DHT22;11813;50.834;4.280;2022-10-17T02:33:22;18.40;99.90
23289;DHT22;11813;50.834;4.280;2022-10-17T02:35:52;18.50;99.90
23289;DHT22;11813;50.834;4.280;2022-10-17T02:38:20;18.40;99.90
23289;DHT22;11813;50.834;4.280;2022-10-17T02:40:49;18.60;99.90
23289;DHT22;11813;50.834;4.280;2022-10-17T02:43:15;18.60;99.90
23289;DHT22;11813;50.834;4.280;2022-10-17T02:45:41;18.60;99.90
23289;DHT22;11813;50.834;4.280;2022-10-17T02:48:18;18.60;99.90
23289;DHT22;11813;50.834;4.280;2022-10-17T02:56:28;18.60;99.90
23289;DHT22;11813;50.834;4.280;2022-10-17T02:58:58;18.70;99.90
23289;DHT22;11813;50.834;4.280;2022-10-17T03:01:25;18.70;99.90
23289;DHT22;11813;50.834;4.280;2022-10-17T03:04:04;18.70;99.90
23289;DHT22;11813;50.834;4.280;2022-10-17T03:06:29;18.80;99.90
23289;DHT22;11813;50.834;4.280;2022-10-17T03:08:55;18.80;99.90
23289;DHT22;11813;50.834;4.280;2022-10-17T03:11:21;18.80;99.90
23289;DHT22;11813;50.834;4.280;2022-10-17T03:13:46;18.80;99.90
23289;DHT22;11813;50.834;4.280;2022-10-17T03:16:12;18.90;99.90
23289;DHT22;11813;50.834;4.280;2022-10-17T03:18:38;18.90;99.90
23289;DHT22;11813;50.834;4.280;2022-10-17T03:21:03;18.80;99.90
23289;DHT22;11813;50.834;4.280;2022-10-17T03:23:29;18.90;99.90
23289;DHT22;11813;50.834;4.280;2022-10-17T03:25:54;19.00;99.90
23289;DHT22;11813;50.834;4.280;2022-10-17T03:28:20;18.90;99.90
23289;DHT22;11813;50.834;4.280;2022-10-17T03:30:45;18.90;99.90
23289;DHT22;11813;50.834;4.280;2022-10-17T03:33:11;18.90;99.90
23289;DHT22;11813;50.834;4.280;2022-10-17T03:35:38;19.10;99.90
23289;DHT22;11813;50.834;4.280;2022-10-17T03:38:04;19.10;99.90
23289;DHT22;11813;50.834;4.280;2022-10-17T03:40:30;19.10;99.90
23289;DHT22;11813;50.834;4.280;2022-10-17T03:42:56;19.10;99.90
23289;DHT22;11813;50.834;4.280;2022-10-17T03:45:21;18.90;99.90
23289;DHT22;11813;50.834;4.280;2022-10-17T03:47:47;19.00;99.90
23289;DHT22;11813;50.834;4.280;2022-10-17T03:50:13;19.00;99.90
23289;DHT22;11813;50.834;4.280;2022-10-17T03:52:38;18.80;99.90
23289;DHT22;11813;50.834;4.280;2022-10-17T03:55:04;18.90;99.90
23289;DHT22;11813;50.834;4.280;2022-10-17T03:57:30;18.90;99.90
23289;DHT22;11813;50.834;4.280;2022-10-17T03:59:56;18.90;99.90
23289;DHT22;11813;50.834;4.280;2022-10-17T04:02:21;18.90;99.90
23289;DHT22;11813;50.834;4.280;2022-10-17T04:04:47;18.90;99.90
23289;DHT22;11813;50.834;4.280;2022-10-17T04:07:12;18.90;99.90
23289;DHT22;11813;50.834;4.280;2022-10-17T04:09:38;18.90;99.90
23289;DHT22;11813;50.834;4.280;2022-10-17T04:12:04;18.90;99.90
23289;DHT22;11813;50.834;4.280;2022-10-17T04:14:29;18.90;99.90
23289;DHT22;11813;50.834;4.280;2022-10-17T04:16:55;18.90;99.90
23289;DHT22;11813;50.834;4.280;2022-10-17T04:19:20;18.90;99.90
23289;DHT22;11813;50.834;4.280;2022-10-17T04:21:46;19.00;99.90
23289;DHT22;11813;50.834;4.280;2022-10-17T04:24:12;19.00;99.90
23289;DHT22;11813;50.834;4.280;2022-10-17T04:26:38;19.00;99.90
23289;DHT22;11813;50.834;4.280;2022-10-17T04:29:04;19.00;99.90
23289;DHT22;11813;50.834;4.280;2022-10-17T04:31:30;18.90;99.90
23289;DHT22;11813;50.834;4.280;2022-10-17T04:33:55;18.80;99.90
23289;DHT22;11813;50.834;4.280;2022-10-17T04:36:21;18.80;99.90
23289;DHT22;11813;50.834;4.280;2022-10-17T04:38:47;18.90;99.90
23289;DHT22;11813;50.834;4.280;2022-10-17T04:41:15;18.90;99.90
23289;DHT22;11813;50.834;4.280;2022-10-17T04:43:41;18.90;99.90
23289;DHT22;11813;50.834;4.280;2022-10-17T04:46:10;18.80;99.90
23289;DHT22;11813;50.834;4.280;2022-10-17T04:48:37;18.70;99.90
23289;DHT22;11813;50.834;4.280;2022-10-17T04:51:06;18.70;99.90
23289;DHT22;11813;50.834;4.280;2022-10-17T04:53:34;18.80;99.90
23289;DHT22;11813;50.834;4.280;2022-10-17T04:56:00;18.80;99.90
23289;DHT22;11813;50.834;4.280;2022-10-17T04:58:29;18.80;99.90
23289;DHT22;11813;50.834;4.280;2022-10-17T05:00:55;18.90;99.90
23289;DHT22;11813;50.834;4.280;2022-10-17T05:03:21;18.80;99.90
23289;DHT22;11813;50.834;4.280;2022-10-17T05:05:46;18.80;99.90
23289;DHT22;11813;50.834;4.280;2022-10-17T05:08:12;18.70;99.90
23289;DHT22;11813;50.834;4.280;2022-10-17T05:10:40;18.70;99.90
23289;DHT22;11813;50.834;4.280;2022-10-17T05:13:06;18.80;99.90
23289;DHT22;11813;50.834;4.280;2022-10-17T05:15:32;18.80;99.90
23289;DHT22;11813;50.834;4.280;2022-10-17T05:17:58;18.70;99.90
23289;DHT22;11813;50.834;4.280;2022-10-17T05:20:23;18.80;99.90
23289;DHT22;11813;50.834;4.280;2022-10-17T05:22:49;18.80;99.90
23289;DHT22;11813;50.834;4.280;2022-10-17T05:25:15;18.90;99.90
23289;DHT22;11813;50.834;4.280;2022-10-17T05:27:41;18.80;99.90
23289;DHT22;11813;50.834;4.280;2022-10-17T05:30:07;18.80;99.90
23289;DHT22;11813;50.834;4.280;2022-10-17T05:32:33;18.80;99.90
23289;DHT22;11813;50.834;4.280;2022-10-17T05:34:59;18.80;99.90
23289;DHT22;11813;50.834;4.280;2022-10-17T05:37:25;18.80;99.90
23289;DHT22;11813;50.834;4.280;2022-10-17T05:39:50;18.80;99.90
23289;DHT22;11813;50.834;4.280;2022-10-17T05:42:16;18.80;99.90
23289;DHT22;11813;50.834;4.280;2022-10-17T05:44:42;18.70;99.90
23289;DHT22;11813;50.834;4.280;2022-10-17T05:47:08;18.80;99.90
23289;DHT22;11813;50.834;4.280;2022-10-17T05:49:33;18.80;99.90
23289;DHT22;11813;50.834;4.280;2022-10-17T05:51:59;18.90;99.90
23289;DHT22;11813;50.834;4.280;2022-10-17T05:54:26;18.90;99.90
23289;DHT22;11813;50.834;4.280;2022-10-17T05:56:53;19.00;99.90
23289;DHT22;11813;50.834;4.280;2022-10-17T05:59:19;18.90;99.90
23289;DHT22;11813;50.834;4.280;2022-10-17T06:01:45;18.90;99.90
23289;DHT22;11813;50.834;4.280;2022-10-17T06:04:10;19.00;99.90
23289;DHT22;11813;50.834;4.280;2022-10-17T06:06:37;18.90;99.90
23289;DHT22;11813;50.834;4.280;2022-10-17T06:09:03;18.90;99.90
23289;DHT22;11813;50.834;4.280;2022-10-17T06:11:29;18.90;99.90
23289;DHT22;11813;50.834;4.280;2022-10-17T06:13:55;18.90;99.90
23289;DHT22;11813;50.834;4.280;2022-10-17T06:16:21;18.80;99.90
23289;DHT22;11813;50.834;4.280;2022-10-17T06:18:47;18.80;99.90
23289;DHT22;11813;50.834;4.280;2022-10-17T06:21:16;18.80;99.90
23289;DHT22;11813;50.834;4.280;2022-10-17T06:23:43;18.80;99.90
23289;DHT22;11813;50.834;4.280;2022-10-17T06:26:09;18.70;99.90
23289;DHT22;11813;50.834;4.280;2022-10-17T06:28:35;18.70;99.90
23289;DHT22;11813;50.834;4.280;2022-10-17T06:31:04;18.70;99.90
23289;DHT22;11813;50.834;4.280;2022-10-17T06:33:30;18.80;99.90
23289;DHT22;11813;50.834;4.280;2022-10-17T06:35:56;18.80;99.90
23289;DHT22;11813;50.834;4.280;2022-10-17T06:38:22;18.70;99.90
23289;DHT22;11813;50.834;4.280;2022-10-17T06:40:48;18.70;99.90
23289;DHT22;11813;50.834;4.280;2022-10-17T06:43:13;18.70;99.90
23289;DHT22;11813;50.834;4.280;2022-10-17T06:45:39;18.70;99.90
23289;DHT22;11813;50.834;4.280;2022-10-17T06:48:06;18.70;99.90
23289;DHT22;11813;50.834;4.280;2022-10-17T06:50:31;18.70;99.90
23289;DHT22;11813;50.834;4.280;2022-10-17T06:52:57;18.70;99.90
23289;DHT22;11813;50.834;4.280;2022-10-17T06:55:23;18.70;99.90
23289;DHT22;11813;50.834;4.280;2022-10-17T06:57:49;18.80;99.90
23289;DHT22;11813;50.834;4.280;2022-10-17T07:00:16;18.70;99.90
23289;DHT22;11813;50.834;4.280;2022-10-17T07:02:42;18.70;99.90
23289;DHT22;11813;50.834;4.280;2022-10-17T07:05:08;18.70;99.90
23289;DHT22;11813;50.834;4.280;2022-10-17T07:07:34;18.60;99.90
23289;DHT22;11813;50.834;4.280;2022-10-17T07:10:00;18.70;99.90
23289;DHT22;11813;50.834;4.280;2022-10-17T07:12:28;18.80;99.90
23289;DHT22;11813;50.834;4.280;2022-10-17T07:14:53;18.70;99.90
23289;DHT22;11813;50.834;4.280;2022-10-17T07:17:19;18.70;99.90
23289;DHT22;11813;50.834;4.280;2022-10-17T07:19:44;18.70;99.90
23289;DHT22;11813;50.834;4.280;2022-10-17T07:22:11;18.60;99.90
23289;DHT22;11813;50.834;4.280;2022-10-17T07:24:37;18.70;99.90
23289;DHT22;11813;50.834;4.280;2022-10-17T07:27:03;18.70;99.90
23289;DHT22;11813;50.834;4.280;2022-10-17T07:29:29;18.60;99.90
23289;DHT22;11813;50.834;4.280;2022-10-17T07:31:54;18.50;99.90
23289;DHT22;11813;50.834;4.280;2022-10-17T07:34:20;18.50;99.90
23289;DHT22;11813;50.834;4.280;2022-10-17T07:36:46;18.50;99.90
23289;DHT22;11813;50.834;4.280;2022-10-17T07:39:11;18.50;99.90
23289;DHT22;11813;50.834;4.280;2022-10-17T07:41:37;18.40;99.90
23289;DHT22;11813;50.834;4.280;2022-10-17T07:44:03;18.50;99.90
23289;DHT22;11813;50.834;4.280;2022-10-17T07:46:29;18.40;99.90
23289;DHT22;11813;50.834;4.280;2022-10-17T07:48:54;18.50;99.90
23289;DHT22;11813;50.834;4.280;2022-10-17T07:51:20;18.40;99.90
23289;DHT22;11813;50.834;4.280;2022-10-17T07:53:46;18.40;99.90
23289;DHT22;11813;50.834;4.280;2022-10-17T07:56:12;18.40;99.90
23289;DHT22;11813;50.834;4.280;2022-10-17T07:58:38;18.50;99.90
23289;DHT22;11813;50.834;4.280;2022-10-17T08:01:07;18.40;99.90
23289;DHT22;11813;50.834;4.280;2022-10-17T08:03:33;18.40;99.90
23289;DHT22;11813;50.834;4.280;2022-10-17T08:06:01;18.40;99.90
23289;DHT22;11813;50.834;4.280;2022-10-17T08:08:27;18.30;99.90
23289;DHT22;11813;50.834;4.280;2022-10-17T08:10:54;18.40;99.90
23289;DHT22;11813;50.834;4.280;2022-10-17T08:13:20;18.50;99.90
23289;DHT22;11813;50.834;4.280;2022-10-17T08:15:46;18.60;99.90
23289;DHT22;11813;50.834;4.280;2022-10-17T08:18:15;18.50;99.90
23289;DHT22;11813;50.834;4.280;2022-10-17T08:20:42;18.50;99.90
23289;DHT22;11813;50.834;4.280;2022-10-17T08:23:08;18.60;99.90
23289;DHT22;11813;50.834;4.280;2022-10-17T08:25:37;18.60;99.90
23289;DHT22;11813;50.834;4.280;2022-10-17T08:28:02;18.80;99.90
23289;DHT22;11813;50.834;4.280;2022-10-17T08:30:28;18.80;99.90
23289;DHT22;11813;50.834;4.280;2022-10-17T08:32:55;18.80;99.90
23289;DHT22;11813;50.834;4.280;2022-10-17T08:35:20;18.90;99.90
23289;DHT22;11813;50.834;4.280;2022-10-17T08:37:46;18.90;99.90
23289;DHT22;11813;50.834;4.280;2022-10-17T08:40:18;19.00;99.90
23289;DHT22;11813;50.834;4.280;2022-10-17T08:45:48;19.20;99.90
23289;DHT22;11813;50.834;4.280;2022-10-17T08:48:18;19.20;99.90
23289;DHT22;11813;50.834;4.280;2022-10-17T08:51:05;19.10;99.90
23289;DHT22;11813;50.834;4.280;2022-10-17T08:53:51;19.10;99.90
23289;DHT22;11813;50.834;4.280;2022-10-17T08:56:25;19.10;99.90
23289;DHT22;11813;50.834;4.280;2022-10-17T08:58:51;19.20;99.90
23289;DHT22;11813;50.834;4.280;2022-10-17T09:04:23;19.20;99.90
23289;DHT22;11813;50.834;4.280;2022-10-17T09:07:06;19.10;99.90
23289;DHT22;11813;50.834;4.280;2022-10-17T09:18:32;19.00;99.90
23289;DHT22;11813;50.834;4.280;2022-10-17T09:23:53;18.90;99.90
23289;DHT22;11813;50.834;4.280;2022-10-17T09:26:20;19.00;99.90
23289;DHT22;11813;50.834;4.280;2022-10-17T09:28:52;18.90;99.90
23289;DHT22;11813;50.834;4.280;2022-10-17T09:31:43;18.80;99.90
23289;DHT22;11813;50.834;4.280;2022-10-17T09:34:10;18.70;99.90
23289;DHT22;11813;50.834;4.280;2022-10-17T09:36:38;18.80;99.90
23289;DHT22;11813;50.834;4.280;2022-10-17T09:39:12;18.70;99.90
23289;DHT22;11813;50.834;4.280;2022-10-17T09:41:42;18.80;99.90
23289;DHT22;11813;50.834;4.280;2022-10-17T09:44:30;18.90;99.90
23289;DHT22;11813;50.834;4.280;2022-10-17T09:49:42;19.00;99.90
23289;DHT22;11813;50.834;4.280;2022-10-17T09:52:18;19.10;99.90
23289;DHT22;11813;50.834;4.280;2022-10-17T09:54:53;19.10;99.90
23289;DHT22;11813;50.834;4.280;2022-10-17T09:57:21;19.10;99.90
23289;DHT22;11813;50.834;4.280;2022-10-17T09:59:56;19.00;99.90
23289;DHT22;11813;50.834;4.280;2022-10-17T10:02:23;19.00;99.90
23289;DHT22;11813;50.834;4.280;2022-10-17T10:04:52;19.00;99.90
23289;DHT22;11813;50.834;4.280;2022-10-17T10:07:19;19.00;99.90
23289;DHT22;11813;50.834;4.280;2022-10-17T10:09:46;19.00;99.90
23289;DHT22;11813;50.834;4.280;2022-10-17T10:12:28;19.00;99.90
23289;DHT22;11813;50.834;4.280;2022-10-17T10:14:55;18.90;99.90
23289;DHT22;11813;50.834;4.280;2022-10-17T10:17:39;18.80;99.90
23289;DHT22;11813;50.834;4.280;2022-10-17T10:20:34;18.80;99.90
23289;DHT22;11813;50.834;4.280;2022-10-17T10:23:26;18.90;99.90
23289;DHT22;11813;50.834;4.280;2022-10-17T10:26:19;18.90;99.90
23289;DHT22;11813;50.834;4.280;2022-10-17T10:28:59;18.90;99.90
23289;DHT22;11813;50.834;4.280;2022-10-17T10:31:29;19.00;99.90
23289;DHT22;11813;50.834;4.280;2022-10-17T10:33:55;18.90;99.90
23289;DHT22;11813;50.834;4.280;2022-10-17T10:36:22;18.90;99.90
23289;DHT22;11813;50.834;4.280;2022-10-17T10:38:55;18.90;99.90
23289;DHT22;11813;50.834;4.280;2022-10-17T10:41:22;18.80;99.90
23289;DHT22;11813;50.834;4.280;2022-10-17T10:43:53;18.90;99.90
23289;DHT22;11813;50.834;4.280;2022-10-17T10:46:25;18.90;99.90
23289;DHT22;11813;50.834;4.280;2022-10-17T10:48:59;18.90;99.90
23289;DHT22;11813;50.834;4.280;2022-10-17T10:51:42;18.90;99.90
23289;DHT22;11813;50.834;4.280;2022-10-17T10:54:21;18.90;99.90
23289;DHT22;11813;50.834;4.280;2022-10-17T10:56:54;18.80;99.90
23289;DHT22;11813;50.834;4.280;2022-10-17T11:08:12;18.90;99.90
23289;DHT22;11813;50.834;4.280;2022-10-17T11:10:58;18.90;99.90
23289;DHT22;11813;50.834;4.280;2022-10-17T11:13:40;18.90;99.90
23289;DHT22;11813;50.834;4.280;2022-10-17T11:16:36;18.80;99.90
23289;DHT22;11813;50.834;4.280;2022-10-17T11:19:27;18.80;99.90
23289;DHT22;11813;50.834;4.280;2022-10-17T11:22:18;18.90;99.90
23289;DHT22;11813;50.834;4.280;2022-10-17T11:24:52;18.90;99.90
23289;DHT22;11813;50.834;4.280;2022-10-17T11:27:22;18.80;99.90
23289;DHT22;11813;50.834;4.280;2022-10-17T11:29:49;18.80;99.90
23289;DHT22;11813;50.834;4.280;2022-10-17T11:32:49;18.60;99.90
23289;DHT22;11813;50.834;4.280;2022-10-17T11:35:36;18.50;99.90
23289;DHT22;11813;50.834;4.280;2022-10-17T11:38:24;18.50;99.90
23289;DHT22;11813;50.834;4.280;2022-10-17T11:40:54;18.50;99.90
23289;DHT22;11813;50.834;4.280;2022-10-17T11:43:41;18.40;99.90
23289;DHT22;11813;50.834;4.280;2022-10-17T11:46:17;18.50;99.90
23289;DHT22;11813;50.834;4.280;2022-10-17T11:49:03;18.60;99.90
23289;DHT22;11813;50.834;4.280;2022-10-17T11:51:39;18.60;99.90
23289;DHT22;11813;50.834;4.280;2022-10-17T11:54:32;18.70;99.90
23289;DHT22;11813;50.834;4.280;2022-10-17T12:04:58;19.10;99.90
23289;DHT22;11813;50.834;4.280;2022-10-17T12:14:00;19.20;99.90
23289;DHT22;11813;50.834;4.280;2022-10-17T12:18:50;19.10;99.90
23289;DHT22;11813;50.834;4.280;2022-10-17T12:21:16;19.10;99.90
23289;DHT22;11813;50.834;4.280;2022-10-17T12:23:51;19.20;99.90
23289;DHT22;11813;50.834;4.280;2022-10-17T12:26:25;19.20;99.90
23289;DHT22;11813;50.834;4.280;2022-10-17T12:28:52;19.20;99.90
23289;DHT22;11813;50.834;4.280;2022-10-17T12:33:48;19.20;99.90
23289;DHT22;11813;50.834;4.280;2022-10-17T12:46:45;19.40;99.90
23289;DHT22;11813;50.834;4.280;2022-10-17T12:52:22;19.60;99.90
23289;DHT22;11813;50.834;4.280;2022-10-17T12:58:00;19.40;99.90
23289;DHT22;11813;50.834;4.280;2022-10-17T13:00:54;19.50;99.90
23289;DHT22;11813;50.834;4.280;2022-10-17T13:03:44;19.60;99.90
23289;DHT22;11813;50.834;4.280;2022-10-17T13:06:20;19.70;99.90
23289;DHT22;11813;50.834;4.280;2022-10-17T13:08:50;19.70;99.90
23289;DHT22;11813;50.834;4.280;2022-10-17T13:11:22;19.70;99.90
23289;DHT22;11813;50.834;4.280;2022-10-17T13:13:52;19.80;99.90
23289;DHT22;11813;50.834;4.280;2022-10-17T13:16:31;19.90;99.90
23289;DHT22;11813;50.834;4.280;2022-10-17T13:18:58;19.90;99.90
23289;DHT22;11813;50.834;4.280;2022-10-17T13:21:25;20.00;99.90
23289;DHT22;11813;50.834;4.280;2022-10-17T13:23:51;19.90;99.90
23289;DHT22;11813;50.834;4.280;2022-10-17T13:28:46;20.00;99.90
23289;DHT22;11813;50.834;4.280;2022-10-17T13:31:34;20.10;99.90
23289;DHT22;11813;50.834;4.280;2022-10-17T13:34:02;20.00;99.90
23289;DHT22;11813;50.834;4.280;2022-10-17T13:36:29;20.10;99.90
23289;DHT22;11813;50.834;4.280;2022-10-17T13:38:58;20.10;99.90
23289;DHT22;11813;50.834;4.280;2022-10-17T13:41:28;20.10;99.90
23289;DHT22;11813;50.834;4.280;2022-10-17T13:43:55;20.10;99.90
23289;DHT22;11813;50.834;4.280;2022-10-17T13:46:30;20.10;99.90
23289;DHT22;11813;50.834;4.280;2022-10-17T13:48:57;20.10;99.90
23289;DHT22;11813;50.834;4.280;2022-10-17T13:51:25;20.20;99.90
23289;DHT22;11813;50.834;4.280;2022-10-17T13:53:53;19.90;99.90
23289;DHT22;11813;50.834;4.280;2022-10-17T13:56:23;19.90;99.90
23289;DHT22;11813;50.834;4.280;2022-10-17T13:58:55;20.00;99.90
23289;DHT22;11813;50.834;4.280;2022-10-17T14:01:23;19.90;99.90
23289;DHT22;11813;50.834;4.280;2022-10-17T14:03:49;20.00;99.90
23289;DHT22;11813;50.834;4.280;2022-10-17T14:06:23;20.00;99.90
23289;DHT22;11813;50.834;4.280;2022-10-17T14:09:02;20.10;99.90
23289;DHT22;11813;50.834;4.280;2022-10-17T14:11:36;19.90;99.90
23289;DHT22;11813;50.834;4.280;2022-10-17T14:14:04;19.90;99.90
23289;DHT22;11813;50.834;4.280;2022-10-17T14:16:36;20.10;99.90
23289;DHT22;11813;50.834;4.280;2022-10-17T14:19:04;20.10;99.90
23289;DHT22;11813;50.834;4.280;2022-10-17T14:21:31;20.10;99.90
23289;DHT22;11813;50.834;4.280;2022-10-17T14:26:56;20.20;99.90
23289;DHT22;11813;50.834;4.280;2022-10-17T14:29:28;20.20;99.90
23289;DHT22;11813;50.834;4.280;2022-10-17T14:32:11;20.10;99.90
23289;DHT22;11813;50.834;4.280;2022-10-17T14:34:39;20.00;99.90
23289;DHT22;11813;50.834;4.280;2022-10-17T14:37:22;20.10;99.90
23289;DHT22;11813;50.834;4.280;2022-10-17T14:39:50;20.20;99.90
23289;DHT22;11813;50.834;4.280;2022-10-17T14:42:20;20.20;99.90
23289;DHT22;11813;50.834;4.280;2022-10-17T14:44:48;20.30;99.90
23289;DHT22;11813;50.834;4.280;2022-10-17T14:47:21;20.30;99.90
23289;DHT22;11813;50.834;4.280;2022-10-17T14:49:50;20.40;99.90
23289;DHT22;11813;50.834;4.280;2022-10-17T14:54:43;20.20;99.90
23289;DHT22;11813;50.834;4.280;2022-10-17T14:57:45;20.10;99.90
23289;DHT22;11813;50.834;4.280;2022-10-17T15:00:15;20.10;99.90
23289;DHT22;11813;50.834;4.280;2022-10-17T15:02:42;20.10;99.90
23289;DHT22;11813;50.834;4.280;2022-10-17T15:05:08;20.20;99.90
23289;DHT22;11813;50.834;4.280;2022-10-17T15:07:33;20.10;99.90
23289;DHT22;11813;50.834;4.280;2022-10-17T15:09:59;20.10;99.90
23289;DHT22;11813;50.834;4.280;2022-10-17T15:12:25;20.10;99.90
23289;DHT22;11813;50.834;4.280;2022-10-17T15:14:50;20.20;99.90
23289;DHT22;11813;50.834;4.280;2022-10-17T15:17:29;20.20;99.90
23289;DHT22;11813;50.834;4.280;2022-10-17T15:19:55;20.20;99.90
23289;DHT22;11813;50.834;4.280;2022-10-17T15:22:21;20.20;99.90
23289;DHT22;11813;50.834;4.280;2022-10-17T15:24:47;20.20;99.90
23289;DHT22;11813;50.834;4.280;2022-10-17T15:27:18;20.10;99.90
23289;DHT22;11813;50.834;4.280;2022-10-17T15:29:45;20.10;99.90
23289;DHT22;11813;50.834;4.280;2022-10-17T15:32:11;20.10;99.90
23289;DHT22;11813;50.834;4.280;2022-10-17T15:34:37;20.10;99.90
23289;DHT22;11813;50.834;4.280;2022-10-17T15:37:04;20.10;99.90
23289;DHT22;11813;50.834;4.280;2022-10-17T15:39:29;20.10;99.90
23289;DHT22;11813;50.834;4.280;2022-10-17T15:41:55;20.20;99.90
23289;DHT22;11813;50.834;4.280;2022-10-17T15:44:21;20.20;99.90
23289;DHT22;11813;50.834;4.280;2022-10-17T15:46:46;20.00;99.90
23289;DHT22;11813;50.834;4.280;2022-10-17T15:49:13;19.80;99.90
23289;DHT22;11813;50.834;4.280;2022-10-17T15:51:41;19.80;99.90
23289;DHT22;11813;50.834;4.280;2022-10-17T15:54:07;19.80;99.90
23289;DHT22;11813;50.834;4.280;2022-10-17T15:56:37;19.80;99.90
23289;DHT22;11813;50.834;4.280;2022-10-17T15:59:15;19.80;99.90
23289;DHT22;11813;50.834;4.280;2022-10-17T16:01:43;19.90;99.90
23289;DHT22;11813;50.834;4.280;2022-10-17T16:04:12;19.90;99.90
23289;DHT22;11813;50.834;4.280;2022-10-17T16:06:40;19.90;99.90
23289;DHT22;11813;50.834;4.280;2022-10-17T16:09:07;20.00;99.90
23289;DHT22;11813;50.834;4.280;2022-10-17T16:11:36;20.10;99.90
23289;DHT22;11813;50.834;4.280;2022-10-17T16:14:05;20.10;99.90
23289;DHT22;11813;50.834;4.280;2022-10-17T16:16:31;20.10;99.90
23289;DHT22;11813;50.834;4.280;2022-10-17T16:18:57;20.20;99.90
23289;DHT22;11813;50.834;4.280;2022-10-17T16:21:27;20.20;99.90
23289;DHT22;11813;50.834;4.280;2022-10-17T16:23:53;20.10;99.90
23289;DHT22;11813;50.834;4.280;2022-10-17T16:26:19;20.10;99.90
23289;DHT22;11813;50.834;4.280;2022-10-17T16:28:45;20.10;99.90
23289;DHT22;11813;50.834;4.280;2022-10-17T16:31:25;20.10;99.90
23289;DHT22;11813;50.834;4.280;2022-10-17T16:33:52;20.00;99.90
23289;DHT22;11813;50.834;4.280;2022-10-17T16:36:19;20.00;99.90
23289;DHT22;11813;50.834;4.280;2022-10-17T16:38:45;20.00;99.90
23289;DHT22;11813;50.834;4.280;2022-10-17T16:43:58;19.90;99.90
23289;DHT22;11813;50.834;4.280;2022-10-17T16:46:25;19.80;99.90
23289;DHT22;11813;50.834;4.280;2022-10-17T16:48:51;19.80;99.90
23289;DHT22;11813;50.834;4.280;2022-10-17T16:51:18;19.80;99.90
23289;DHT22;11813;50.834;4.280;2022-10-17T16:53:48;19.80;99.90
23289;DHT22;11813;50.834;4.280;2022-10-17T16:56:19;19.70;99.90
23289;DHT22;11813;50.834;4.280;2022-10-17T16:58:46;19.70;99.90
23289;DHT22;11813;50.834;4.280;2022-10-17T17:01:22;19.70;99.90
23289;DHT22;11813;50.834;4.280;2022-10-17T17:03:49;19.70;99.90
23289;DHT22;11813;50.834;4.280;2022-10-17T17:06:18;19.70;99.90
23289;DHT22;11813;50.834;4.280;2022-10-17T17:08:45;19.70;99.90
23289;DHT22;11813;50.834;4.280;2022-10-17T17:11:12;19.70;99.90
23289;DHT22;11813;50.834;4.280;2022-10-17T17:13:39;19.70;99.90
23289;DHT22;11813;50.834;4.280;2022-10-17T17:16:08;19.60;99.90
23289;DHT22;11813;50.834;4.280;2022-10-17T17:18:34;19.70;99.90
23289;DHT22;11813;50.834;4.280;2022-10-17T17:21:01;19.50;99.90
23289;DHT22;11813;50.834;4.280;2022-10-17T17:23:27;19.60;99.90
23289;DHT22;11813;50.834;4.280;2022-10-17T17:25:57;19.50;99.90